createdAt,value
2018-01-18T00:00:18.502Z,99.99
2018-01-18T00:01:18.468Z,99.99
2018-01-18T00:02:18.445Z,99.99
2018-01-18T00:03:18.402Z,99.99
2018-01-18T00:04:18.373Z,99.99
2018-01-18T00:05:18.345Z,99.99
2018-01-18T00:06:18.314Z,99.99
2018-01-18T00:07:18.283Z,99.99
2018-01-18T00:08:18.259Z,99.99
2018-01-18T00:09:18.221Z,99.99
2018-01-18T00:10:17.953Z,99.99
2018-01-18T00:11:18.168Z,99.99
2018-01-18T00:12:17.886Z,99.99
2018-01-18T00:13:17.860Z,99.99
2018-01-18T00:14:18.081Z,99.99
2018-01-18T00:15:18.040Z,99.99
2018-01-18T00:16:18.012Z,99.99
2018-01-18T00:17:17.983Z,99.99
2018-01-18T00:18:17.952Z,99.99
2018-01-18T00:19:17.919Z,99.99
2018-01-18T00:20:17.897Z,99.99
2018-01-18T00:21:17.859Z,99.99
2018-01-18T00:22:17.828Z,99.99
2018-01-18T00:23:17.798Z,99.99
2018-01-18T00:24:17.522Z,99.99
2018-01-18T00:25:17.734Z,99.99
2018-01-18T00:26:17.708Z,99.99
2018-01-18T00:27:17.689Z,99.99
2018-01-18T00:28:17.648Z,99.99
2018-01-18T00:29:17.625Z,99.99
2018-01-18T00:30:17.588Z,99.99
2018-01-18T00:31:17.556Z,99.99
2018-01-18T00:32:17.530Z,99.99
2018-01-18T00:33:17.549Z,99.99
2018-01-18T00:34:17.465Z,99.99
2018-01-18T00:35:17.442Z,99.99
2018-01-18T00:36:17.405Z,99.99
2018-01-18T00:37:17.375Z,99.99
2018-01-18T00:38:17.353Z,99.99
2018-01-18T00:39:17.310Z,99.99
2018-01-18T00:40:17.035Z,99.99
2018-01-18T00:41:17.250Z,99.99
2018-01-18T00:42:16.976Z,99.99
2018-01-18T00:43:17.192Z,99.99
2018-01-18T00:44:17.159Z,99.99
2018-01-18T00:45:16.886Z,99.99
2018-01-18T00:46:17.099Z,99.99
2018-01-18T00:47:17.070Z,99.99
2018-01-18T00:48:17.040Z,99.99
2018-01-18T00:49:17.013Z,99.99
2018-01-18T00:50:16.980Z,99.99
2018-01-18T00:51:16.979Z,99.99
2018-01-18T00:52:16.924Z,99.99
2018-01-18T00:53:16.643Z,99.99
2018-01-18T00:54:16.861Z,99.99
2018-01-18T00:55:16.830Z,99.86
2018-01-18T00:56:16.801Z,99.99
2018-01-18T00:57:16.768Z,99.99
2018-01-18T00:58:16.738Z,99.99
2018-01-18T00:59:16.463Z,99.72
2018-01-18T01:00:16.678Z,99.67
2018-01-18T01:01:16.646Z,99.72
2018-01-18T01:02:16.619Z,99.82
2018-01-18T01:03:16.588Z,99.91
2018-01-18T01:04:16.556Z,99.72
2018-01-18T01:05:16.528Z,99.63
2018-01-18T01:06:16.499Z,99.72
2018-01-18T01:07:16.473Z,99.91
2018-01-18T01:08:16.437Z,99.44
2018-01-18T01:09:16.410Z,98.96
2018-01-18T01:10:16.383Z,99.06
2018-01-18T01:11:16.346Z,98.87
2018-01-18T01:12:16.321Z,98.87
2018-01-18T01:13:16.295Z,99.72
2018-01-18T01:14:16.258Z,99.48
2018-01-18T01:15:16.230Z,99.44
2018-01-18T01:16:15.953Z,99.39
2018-01-18T01:17:16.167Z,99.44
2018-01-18T01:18:16.135Z,98.91
2018-01-18T01:19:15.863Z,98.91
2018-01-18T01:20:15.833Z,99.2
2018-01-18T01:21:15.801Z,98.87
2018-01-18T01:22:16.016Z,98.87
2018-01-18T01:23:15.988Z,98.77
2018-01-18T01:24:15.954Z,98.87
2018-01-18T01:25:15.681Z,98.58
2018-01-18T01:26:15.944Z,98.49
2018-01-18T01:27:15.868Z,98.49
2018-01-18T01:28:15.836Z,98.02
2018-01-18T01:29:15.561Z,98.3
2018-01-18T01:30:15.874Z,98.02
2018-01-18T01:31:15.785Z,98.21
2018-01-18T01:32:15.718Z,98.3
2018-01-18T01:33:15.685Z,98.39
2018-01-18T01:34:15.658Z,98.58
2018-01-18T01:35:15.624Z,98.3
2018-01-18T01:36:15.598Z,98.39
2018-01-18T01:37:15.321Z,98.39
2018-01-18T01:38:15.534Z,98.58
2018-01-18T01:39:15.507Z,98.68
2018-01-18T01:40:15.482Z,98.3
2018-01-18T01:41:15.442Z,98.58
2018-01-18T01:42:15.170Z,98.58
2018-01-18T01:43:15.139Z,98.39
2018-01-18T01:44:15.358Z,98.39
2018-01-18T01:45:15.327Z,98.39
2018-01-18T01:46:15.051Z,98.3
2018-01-18T01:47:15.266Z,98.68
2018-01-18T01:48:14.990Z,98.58
2018-01-18T01:49:14.958Z,97.73
2018-01-18T01:50:15.177Z,97.73
2018-01-18T01:51:15.144Z,97.83
2018-01-18T01:52:15.127Z,98.02
2018-01-18T01:53:14.841Z,97.92
2018-01-18T01:54:15.054Z,98.11
2018-01-18T01:55:15.027Z,98.21
2018-01-18T01:56:14.998Z,98.02
2018-01-18T01:57:14.757Z,97.83
2018-01-18T01:58:14.693Z,97.73
2018-01-18T01:59:14.663Z,97.73
2018-01-18T02:00:14.632Z,97.26
2018-01-18T02:01:14.603Z,97.54
2018-01-18T02:02:14.820Z,97.26
2018-01-18T02:03:14.784Z,97.54
2018-01-18T02:04:14.755Z,97.35
2018-01-18T02:05:14.725Z,97.16
2018-01-18T02:06:14.698Z,97.35
2018-01-18T02:07:14.670Z,97.45
2018-01-18T02:08:14.640Z,97.45
2018-01-18T02:09:14.610Z,97.45
2018-01-18T02:10:14.727Z,97.35
2018-01-18T02:11:14.549Z,97.26
2018-01-18T02:12:14.516Z,97.35
2018-01-18T02:13:14.487Z,97.73
2018-01-18T02:14:14.458Z,97.92
2018-01-18T02:15:14.430Z,98.11
2018-01-18T02:16:14.154Z,97.54
2018-01-18T02:17:14.368Z,98.02
2018-01-18T02:18:14.091Z,98.11
2018-01-18T02:19:14.311Z,98.02
2018-01-18T02:20:14.282Z,98.21
2018-01-18T02:21:14.250Z,98.11
2018-01-18T02:22:14.220Z,98.02
2018-01-18T02:23:14.192Z,98.02
2018-01-18T02:24:13.916Z,98.02
2018-01-18T02:25:14.136Z,97.73
2018-01-18T02:26:14.102Z,97.73
2018-01-18T02:27:14.068Z,98.02
2018-01-18T02:28:14.077Z,97.83
2018-01-18T02:29:14.010Z,97.83
2018-01-18T02:30:13.983Z,98.58
2018-01-18T02:31:13.951Z,98.49
2018-01-18T02:32:13.928Z,98.58
2018-01-18T02:33:13.653Z,98.49
2018-01-18T02:34:13.872Z,98.3
2018-01-18T02:35:13.830Z,98.21
2018-01-18T02:36:13.800Z,98.58
2018-01-18T02:37:13.773Z,98.58
2018-01-18T02:38:13.745Z,98.49
2018-01-18T02:39:13.717Z,98.02
2018-01-18T02:40:13.686Z,98.49
2018-01-18T02:41:13.659Z,98.21
2018-01-18T02:42:13.623Z,98.39
2018-01-18T02:43:13.595Z,98.49
2018-01-18T02:44:13.571Z,98.3
2018-01-18T02:45:13.542Z,98.49
2018-01-18T02:46:13.260Z,99.15
2018-01-18T02:47:13.476Z,98.96
2018-01-18T02:48:13.199Z,98.87
2018-01-18T02:49:13.419Z,99.06
2018-01-18T02:50:13.389Z,99.15
2018-01-18T02:51:13.361Z,99.15
2018-01-18T02:52:13.329Z,98.77
2018-01-18T02:53:13.347Z,98.87
2018-01-18T02:54:13.274Z,98.96
2018-01-18T02:55:13.243Z,98.68
2018-01-18T02:56:13.213Z,98.49
2018-01-18T02:57:13.182Z,98.77
2018-01-18T02:58:13.149Z,98.96
2018-01-18T02:59:13.117Z,99.63
2018-01-18T03:00:13.246Z,99.25
2018-01-18T03:01:13.060Z,99.15
2018-01-18T03:02:13.030Z,99.15
2018-01-18T03:03:13.004Z,99.06
2018-01-18T03:04:12.727Z,99.06
2018-01-18T03:05:12.942Z,98.87
2018-01-18T03:06:12.667Z,98.96
2018-01-18T03:07:12.883Z,99.53
2018-01-18T03:08:12.610Z,99.44
2018-01-18T03:09:12.823Z,99.34
2018-01-18T03:10:12.796Z,99.34
2018-01-18T03:11:12.761Z,99.44
2018-01-18T03:12:12.736Z,99.63
2018-01-18T03:13:12.704Z,99.82
2018-01-18T03:14:12.672Z,99.82
2018-01-18T03:15:12.643Z,99.72
2018-01-18T03:16:12.613Z,99.99
2018-01-18T03:17:12.584Z,99.99
2018-01-18T03:18:12.556Z,99.99
2018-01-18T03:19:12.529Z,99.99
2018-01-18T03:20:12.495Z,99.99
2018-01-18T03:21:12.466Z,99.99
2018-01-18T03:22:12.436Z,99.99
2018-01-18T03:23:12.405Z,99.99
2018-01-18T03:24:12.374Z,99.99
2018-01-18T03:25:12.345Z,99.99
2018-01-18T03:26:12.315Z,99.99
2018-01-18T03:27:12.286Z,99.99
2018-01-18T03:28:12.254Z,99.99
2018-01-18T03:29:11.981Z,99.99
2018-01-18T03:30:12.199Z,99.99
2018-01-18T03:31:12.166Z,99.99
2018-01-18T03:32:12.138Z,99.99
2018-01-18T03:33:12.106Z,99.99
2018-01-18T03:34:12.079Z,99.99
2018-01-18T03:35:12.046Z,99.99
2018-01-18T03:36:12.016Z,99.99
2018-01-18T03:37:11.990Z,99.99
2018-01-18T03:38:11.710Z,99.99
2018-01-18T03:39:11.683Z,99.99
2018-01-18T03:40:11.897Z,99.99
2018-01-18T03:41:11.621Z,99.99
2018-01-18T03:42:11.837Z,99.99
2018-01-18T03:43:11.809Z,99.99
2018-01-18T03:44:11.780Z,99.99
2018-01-18T03:45:11.749Z,99.99
2018-01-18T03:46:11.717Z,99.99
2018-01-18T03:47:11.686Z,99.99
2018-01-18T03:48:11.659Z,99.99
2018-01-18T03:49:11.679Z,99.99
2018-01-18T03:50:11.354Z,99.99
2018-01-18T03:51:11.569Z,99.99
2018-01-18T03:52:11.537Z,99.99
2018-01-18T03:53:11.506Z,99.99
2018-01-18T03:54:11.480Z,99.99
2018-01-18T03:55:11.450Z,99.99
2018-01-18T03:56:11.417Z,99.99
2018-01-18T03:57:11.389Z,99.99
2018-01-18T03:58:11.357Z,99.99
2018-01-18T03:59:11.082Z,99.99
2018-01-18T04:00:11.301Z,99.99
2018-01-18T04:01:11.267Z,99.99
2018-01-18T04:02:11.241Z,99.99
2018-01-18T04:03:11.211Z,99.99
2018-01-18T04:04:10.933Z,99.99
2018-01-18T04:05:11.157Z,99.99
2018-01-18T04:06:11.122Z,99.99
2018-01-18T04:07:10.841Z,99.99
2018-01-18T04:08:11.057Z,99.99
2018-01-18T04:09:11.027Z,99.99
2018-01-18T04:10:10.997Z,99.99
2018-01-18T04:11:10.924Z,99.99
2018-01-18T04:12:10.690Z,99.99
2018-01-18T04:13:10.913Z,99.99
2018-01-18T04:14:10.878Z,99.99
2018-01-18T04:15:10.849Z,99.99
2018-01-18T04:16:10.820Z,99.99
2018-01-18T04:17:10.542Z,99.99
2018-01-18T04:18:10.511Z,99.99
2018-01-18T04:19:10.725Z,99.99
2018-01-18T04:20:10.705Z,99.99
2018-01-18T04:21:10.668Z,99.99
2018-01-18T04:22:10.635Z,99.99
2018-01-18T04:23:10.608Z,99.99
2018-01-18T04:24:10.574Z,99.99
2018-01-18T04:25:10.299Z,99.99
2018-01-18T04:26:10.520Z,99.99
2018-01-18T04:27:10.239Z,99.99
2018-01-18T04:28:10.210Z,99.99
2018-01-18T04:29:10.426Z,99.99
2018-01-18T04:30:10.398Z,99.99
2018-01-18T04:31:10.121Z,99.99
2018-01-18T04:32:10.373Z,99.99
2018-01-18T04:33:10.059Z,99.99
2018-01-18T04:34:10.276Z,99.99
2018-01-18T04:35:10.245Z,99.99
2018-01-18T04:36:09.969Z,99.99
2018-01-18T04:37:10.185Z,99.99
2018-01-18T04:38:09.906Z,99.99
2018-01-18T04:39:10.125Z,99.99
2018-01-18T04:40:10.098Z,99.99
2018-01-18T04:41:10.062Z,99.99
2018-01-18T04:42:10.032Z,99.99
2018-01-18T04:43:10.005Z,99.99
2018-01-18T04:44:09.971Z,99.99
2018-01-18T04:45:09.943Z,99.99
2018-01-18T04:46:09.913Z,99.99
2018-01-18T04:47:09.884Z,99.99
2018-01-18T04:48:09.851Z,99.99
2018-01-18T04:49:09.577Z,99.99
2018-01-18T04:50:09.546Z,99.99
2018-01-18T04:51:09.516Z,99.99
2018-01-18T04:52:09.730Z,99.99
2018-01-18T04:53:09.696Z,99.99
2018-01-18T04:54:09.668Z,99.99
2018-01-18T04:55:09.638Z,99.99
2018-01-18T04:56:09.605Z,99.99
2018-01-18T04:57:09.579Z,99.99
2018-01-18T04:58:09.549Z,99.99
2018-01-18T04:59:09.523Z,99.99
2018-01-18T05:00:09.487Z,99.99
2018-01-18T05:01:09.454Z,99.99
2018-01-18T05:02:09.425Z,99.99
2018-01-18T05:03:09.393Z,99.99
2018-01-18T05:04:09.361Z,99.99
2018-01-18T05:05:09.332Z,99.99
2018-01-18T05:06:09.061Z,99.99
2018-01-18T05:07:09.272Z,99.99
2018-01-18T05:08:08.994Z,99.99
2018-01-18T05:09:09.213Z,99.99
2018-01-18T05:10:09.181Z,99.99
2018-01-18T05:11:09.150Z,99.99
2018-01-18T05:12:09.121Z,99.99
2018-01-18T05:13:09.088Z,99.99
2018-01-18T05:14:09.064Z,99.99
2018-01-18T05:15:09.030Z,99.99
2018-01-18T05:16:08.750Z,99.99
2018-01-18T05:17:08.975Z,99.99
2018-01-18T05:18:08.937Z,99.99
2018-01-18T05:19:08.905Z,99.99
2018-01-18T05:20:08.876Z,99.99
2018-01-18T05:21:08.846Z,99.99
2018-01-18T05:22:08.811Z,99.99
2018-01-18T05:23:08.780Z,99.99
2018-01-18T05:24:08.755Z,99.99
2018-01-18T05:25:08.474Z,99.99
2018-01-18T05:26:08.696Z,99.99
2018-01-18T05:27:08.662Z,99.99
2018-01-18T05:28:08.628Z,99.99
2018-01-18T05:29:08.601Z,99.99
2018-01-18T05:30:08.322Z,99.99
2018-01-18T05:31:08.293Z,99.99
2018-01-18T05:32:08.509Z,99.99
2018-01-18T05:33:08.479Z,99.99
2018-01-18T05:34:08.444Z,99.99
2018-01-18T05:35:08.417Z,99.99
2018-01-18T05:36:08.386Z,99.99
2018-01-18T05:37:08.353Z,99.99
2018-01-18T05:38:08.079Z,99.99
2018-01-18T05:39:08.294Z,99.99
2018-01-18T05:40:08.261Z,99.99
2018-01-18T05:41:07.987Z,99.99
2018-01-18T05:42:08.200Z,99.99
2018-01-18T05:43:08.172Z,99.99
2018-01-18T05:44:08.142Z,99.99
2018-01-18T05:45:08.163Z,99.99
2018-01-18T05:46:08.081Z,99.99
2018-01-18T05:47:07.805Z,99.99
2018-01-18T05:48:08.065Z,99.99
2018-01-18T05:49:07.743Z,99.99
2018-01-18T05:50:07.962Z,99.99
2018-01-18T05:51:07.980Z,99.99
2018-01-18T05:52:07.649Z,99.99
2018-01-18T05:53:07.866Z,99.99
2018-01-18T05:54:07.833Z,99.99
2018-01-18T05:55:07.806Z,99.99
2018-01-18T05:56:07.530Z,99.99
2018-01-18T05:57:07.500Z,99.99
2018-01-18T05:58:07.713Z,99.99
2018-01-18T05:59:07.437Z,99.99
2018-01-18T06:00:07.659Z,99.99
2018-01-18T06:01:07.622Z,99.99
2018-01-18T06:02:07.346Z,99.99
2018-01-18T06:03:07.560Z,99.99
2018-01-18T06:04:07.530Z,99.99
2018-01-18T06:05:07.254Z,99.99
2018-01-18T06:06:07.225Z,99.99
2018-01-18T06:07:07.438Z,99.99
2018-01-18T06:08:07.410Z,99.99
2018-01-18T06:09:07.379Z,99.99
2018-01-18T06:10:07.353Z,99.99
2018-01-18T06:11:07.318Z,99.99
2018-01-18T06:12:07.288Z,99.99
2018-01-18T06:13:07.009Z,99.99
2018-01-18T06:14:06.979Z,99.99
2018-01-18T06:15:07.811Z,99.99
2018-01-18T06:16:07.393Z,99.99
2018-01-18T06:17:07.354Z,99.99
2018-01-18T06:18:07.103Z,99.99
2018-01-18T06:19:07.071Z,99.99
2018-01-18T06:20:07.043Z,99.99
2018-01-18T06:21:07.012Z,99.99
2018-01-18T06:22:06.735Z,99.99
2018-01-18T06:23:06.705Z,99.99
2018-01-18T06:24:06.921Z,99.99
2018-01-18T06:25:06.889Z,99.99
2018-01-18T06:26:06.856Z,99.99
2018-01-18T06:27:06.827Z,99.99
2018-01-18T06:28:06.552Z,99.99
2018-01-18T06:29:06.772Z,99.99
2018-01-18T06:30:06.737Z,99.99
2018-01-18T06:31:06.709Z,99.99
2018-01-18T06:32:06.676Z,99.99
2018-01-18T06:33:06.400Z,99.99
2018-01-18T06:34:06.613Z,99.99
2018-01-18T06:35:06.588Z,99.99
2018-01-18T06:36:06.554Z,99.99
2018-01-18T06:37:06.524Z,99.99
2018-01-18T06:38:06.496Z,99.99
2018-01-18T06:39:06.466Z,99.99
2018-01-18T06:40:06.433Z,99.99
2018-01-18T06:41:06.403Z,99.99
2018-01-18T06:42:06.373Z,99.99
2018-01-18T06:43:06.342Z,99.99
2018-01-18T06:44:06.316Z,99.99
2018-01-18T06:45:06.287Z,99.99
2018-01-18T06:46:06.252Z,99.99
2018-01-18T06:47:06.230Z,99.99
2018-01-18T06:48:06.196Z,99.99
2018-01-18T06:49:06.164Z,99.99
2018-01-18T06:50:06.133Z,99.99
2018-01-18T06:51:06.106Z,99.99
2018-01-18T06:52:06.081Z,99.99
2018-01-18T06:53:06.045Z,99.99
2018-01-18T06:54:05.769Z,99.99
2018-01-18T06:55:05.987Z,99.99
2018-01-18T06:56:05.953Z,99.99
2018-01-18T06:57:05.926Z,99.99
2018-01-18T06:58:05.894Z,99.99
2018-01-18T06:59:05.865Z,99.99
2018-01-18T07:00:05.591Z,99.99
2018-01-18T07:01:05.805Z,99.99
2018-01-18T07:02:05.777Z,99.99
2018-01-18T07:03:05.748Z,99.99
2018-01-18T07:04:05.714Z,99.99
2018-01-18T07:05:05.686Z,99.99
2018-01-18T07:06:05.708Z,99.99
2018-01-18T07:07:05.379Z,99.99
2018-01-18T07:08:05.598Z,99.99
2018-01-18T07:09:05.321Z,99.99
2018-01-18T07:10:05.683Z,99.99
2018-01-18T07:11:05.509Z,99.99
2018-01-18T07:12:05.484Z,99.99
2018-01-18T07:13:05.451Z,99.99
2018-01-18T07:14:05.418Z,99.99
2018-01-18T07:15:05.145Z,99.99
2018-01-18T07:16:05.359Z,99.99
2018-01-18T07:17:05.335Z,99.99
2018-01-18T07:18:05.055Z,99.99
2018-01-18T07:19:05.281Z,99.99
2018-01-18T07:20:05.246Z,99.99
2018-01-18T07:21:05.212Z,99.99
2018-01-18T07:22:05.190Z,99.99
2018-01-18T07:23:05.153Z,99.99
2018-01-18T07:24:05.128Z,99.99
2018-01-18T07:25:04.852Z,99.99
2018-01-18T07:26:05.070Z,99.99
2018-01-18T07:27:05.041Z,99.99
2018-01-18T07:28:05.019Z,99.99
2018-01-18T07:29:04.977Z,99.99
2018-01-18T07:30:04.706Z,99.99
2018-01-18T07:31:04.920Z,99.99
2018-01-18T07:32:04.944Z,99.99
2018-01-18T07:33:04.871Z,99.99
2018-01-18T07:34:04.834Z,99.99
2018-01-18T07:35:04.811Z,99.99
2018-01-18T07:36:04.532Z,99.99
2018-01-18T07:37:04.750Z,99.99
2018-01-18T07:38:04.921Z,99.99
2018-01-18T07:39:04.694Z,99.99
2018-01-18T07:40:04.663Z,99.99
2018-01-18T07:41:04.637Z,99.99
2018-01-18T07:42:04.605Z,99.99
2018-01-18T07:43:04.575Z,99.99
2018-01-18T07:44:04.547Z,99.99
2018-01-18T07:45:04.521Z,99.99
2018-01-18T07:46:04.491Z,99.99
2018-01-18T07:47:04.460Z,99.99
2018-01-18T07:48:04.440Z,99.99
2018-01-18T07:49:04.212Z,99.99
2018-01-18T07:50:04.315Z,99.99
2018-01-18T07:51:04.479Z,99.99
2018-01-18T07:52:04.320Z,99.99
2018-01-18T07:53:04.293Z,99.99
2018-01-18T07:54:04.261Z,99.99
2018-01-18T07:55:04.235Z,99.99
2018-01-18T07:56:04.208Z,99.99
2018-01-18T07:57:04.180Z,99.99
2018-01-18T07:58:04.155Z,99.99
2018-01-18T07:59:04.200Z,99.99
2018-01-18T08:00:04.094Z,99.99
2018-01-18T08:01:04.066Z,99.99
2018-01-18T08:02:04.036Z,99.99
2018-01-18T08:03:03.763Z,99.99
2018-01-18T08:04:03.981Z,99.99
2018-01-18T08:05:03.951Z,99.99
2018-01-18T08:06:03.928Z,99.99
2018-01-18T08:07:04.075Z,99.99
2018-01-18T08:08:03.870Z,99.99
2018-01-18T08:09:03.840Z,99.99
2018-01-18T08:10:03.816Z,99.99
2018-01-18T08:11:04.813Z,99.99
2018-01-18T08:12:04.488Z,99.99
2018-01-18T08:13:03.890Z,99.99
2018-01-18T08:14:04.440Z,99.99
2018-01-18T08:15:04.036Z,99.99
2018-01-18T08:16:03.649Z,99.99
2018-01-18T08:17:03.622Z,99.99
2018-01-18T08:18:03.593Z,99.99
2018-01-18T08:19:03.567Z,99.99
2018-01-18T08:20:03.540Z,99.99
2018-01-18T08:21:03.633Z,99.99
2018-01-18T08:22:03.484Z,99.99
2018-01-18T08:23:03.459Z,99.99
2018-01-18T08:24:03.431Z,99.99
2018-01-18T08:25:03.405Z,99.99
2018-01-18T08:26:03.380Z,99.99
2018-01-18T08:27:03.104Z,99.99
2018-01-18T08:28:03.333Z,99.99
2018-01-18T08:29:03.293Z,99.99
2018-01-18T08:30:03.024Z,99.99
2018-01-18T08:31:03.243Z,99.99
2018-01-18T08:32:03.213Z,99.99
2018-01-18T08:33:03.195Z,99.99
2018-01-18T08:34:03.163Z,99.99
2018-01-18T08:35:02.925Z,99.99
2018-01-18T08:36:03.120Z,99.99
2018-01-18T08:37:02.838Z,99.99
2018-01-18T08:38:03.110Z,99.99
2018-01-18T08:39:03.031Z,99.99
2018-01-18T08:40:03.108Z,99.99
2018-01-18T08:41:02.822Z,99.99
2018-01-18T08:42:03.529Z,99.99
2018-01-18T08:43:03.016Z,99.99
2018-01-18T08:44:03.007Z,99.99
2018-01-18T08:45:02.868Z,99.99
2018-01-18T08:46:02.920Z,99.99
2018-01-18T08:47:02.817Z,99.99
2018-01-18T08:48:02.791Z,99.99
2018-01-18T08:49:02.762Z,99.99
2018-01-18T08:50:02.738Z,99.99
2018-01-18T08:51:02.942Z,99.99
2018-01-18T08:52:02.686Z,99.99
2018-01-18T08:53:02.656Z,99.99
2018-01-18T08:54:02.633Z,99.99
2018-01-18T08:55:02.610Z,99.99
2018-01-18T08:56:02.913Z,99.99
2018-01-18T08:57:02.721Z,99.99
2018-01-18T08:58:02.529Z,99.99
2018-01-18T08:59:02.500Z,99.99
2018-01-18T09:00:02.478Z,99.99
2018-01-18T09:01:02.461Z,99.99
2018-01-18T09:02:02.423Z,99.99
2018-01-18T09:03:02.402Z,99.99
2018-01-18T09:04:02.127Z,99.99
2018-01-18T09:05:02.350Z,99.99
2018-01-18T09:06:02.321Z,99.99
2018-01-18T09:07:02.297Z,99.99
2018-01-18T09:08:02.267Z,99.99
2018-01-18T09:09:02.243Z,99.99
2018-01-18T09:10:02.216Z,99.99
2018-01-18T09:11:02.190Z,99.99
2018-01-18T09:12:02.164Z,99.99
2018-01-18T09:13:01.892Z,99.99
2018-01-18T09:14:02.116Z,99.99
2018-01-18T09:15:02.104Z,99.99
2018-01-18T09:16:02.060Z,99.99
2018-01-18T09:17:02.181Z,99.99
2018-01-18T09:18:02.008Z,99.99
2018-01-18T09:19:01.982Z,99.99
2018-01-18T09:20:01.960Z,99.99
2018-01-18T09:21:01.932Z,99.99
2018-01-18T09:22:01.947Z,99.99
2018-01-18T09:23:01.881Z,99.99
2018-01-18T09:24:01.855Z,99.99
2018-01-18T09:25:01.828Z,99.99
2018-01-18T09:26:01.809Z,99.99
2018-01-18T09:27:01.787Z,99.99
2018-01-18T09:28:01.794Z,99.99
2018-01-18T09:29:01.479Z,99.99
2018-01-18T09:30:01.703Z,99.99
2018-01-18T09:31:01.677Z,99.99
2018-01-18T09:32:01.647Z,99.99
2018-01-18T09:33:01.622Z,99.99
2018-01-18T09:34:01.600Z,99.99
2018-01-18T09:35:01.325Z,99.99
2018-01-18T09:36:01.548Z,99.99
2018-01-18T09:37:01.526Z,99.99
2018-01-18T09:38:01.496Z,99.99
2018-01-18T09:39:01.466Z,99.99
2018-01-18T09:40:01.442Z,99.99
2018-01-18T09:41:01.417Z,99.99
2018-01-18T09:42:01.392Z,99.99
2018-01-18T09:43:01.366Z,99.99
2018-01-18T09:44:01.091Z,99.99
2018-01-18T09:45:02.379Z,99.99
2018-01-18T09:46:01.910Z,99.99
2018-01-18T09:47:01.350Z,99.99
2018-01-18T09:48:00.989Z,99.99
2018-01-18T09:49:01.209Z,99.99
2018-01-18T09:50:01.187Z,99.99
2018-01-18T09:51:01.159Z,99.99
2018-01-18T09:52:00.890Z,99.99
2018-01-18T09:53:01.108Z,99.99
2018-01-18T09:54:01.079Z,99.99
2018-01-18T09:55:00.810Z,99.99
2018-01-18T09:56:01.033Z,99.99
2018-01-18T09:57:01.010Z,99.99
2018-01-18T09:58:00.977Z,99.99
2018-01-18T09:59:01.015Z,99.99
2018-01-18T10:00:00.927Z,99.99
2018-01-18T10:01:00.907Z,99.99
2018-01-18T10:02:01.047Z,98.79
2018-01-18T10:03:00.854Z,99.99
2018-01-18T10:04:00.849Z,99.99
2018-01-18T10:05:00.805Z,99.99
2018-01-18T10:06:00.533Z,99.99
2018-01-18T10:07:00.762Z,99.99
2018-01-18T10:08:00.732Z,99.99
2018-01-18T10:09:00.746Z,99.99
2018-01-18T10:10:00.437Z,99.36
2018-01-18T10:11:00.634Z,98.6
2018-01-18T10:12:00.631Z,98.13
2018-01-18T10:13:00.361Z,94.7
2018-01-18T10:14:00.586Z,94.6
2018-01-18T10:15:00.560Z,95.75
2018-01-18T10:16:00.291Z,97.93
2018-01-18T10:17:00.264Z,94.7
2018-01-18T10:18:00.490Z,97.17
2018-01-18T10:19:00.465Z,97.74
2018-01-18T10:20:00.441Z,95.79
2018-01-18T10:21:00.415Z,97.03
2018-01-18T10:22:00.390Z,94.56
2018-01-18T10:23:00.118Z,94.56
2018-01-18T10:24:00.340Z,96.94
2018-01-18T10:25:00.079Z,98.36
2018-01-18T10:26:00.321Z,98.65
2018-01-18T10:27:00.310Z,93.7
2018-01-18T10:28:00.103Z,93.6
2018-01-18T10:29:00.228Z,93.13
2018-01-18T10:30:00.349Z,92.08
2018-01-18T10:30:59.926Z,93.7
2018-01-18T10:32:00.193Z,94.89
2018-01-18T10:32:59.879Z,95.56
2018-01-18T10:34:00.097Z,96.89
2018-01-18T10:34:59.827Z,93.55
2018-01-18T10:35:59.804Z,91.85
2018-01-18T10:37:00.029Z,90.99
2018-01-18T10:37:59.756Z,92.41
2018-01-18T10:38:59.980Z,91.66
2018-01-18T10:39:59.951Z,94.89
2018-01-18T10:40:59.681Z,96.41
2018-01-18T10:41:59.901Z,97.74
2018-01-18T10:42:59.879Z,96.89
2018-01-18T10:43:59.605Z,95.17
2018-01-18T10:44:59.582Z,94.32
2018-01-18T10:45:59.565Z,94.98
2018-01-18T10:46:59.532Z,97.97
2018-01-18T10:47:59.751Z,93.6
2018-01-18T10:48:59.728Z,94.37
2018-01-18T10:49:59.457Z,95.51
2018-01-18T10:50:59.678Z,93.23
2018-01-18T10:51:59.405Z,94.46
2018-01-18T10:52:59.629Z,93.51
2018-01-18T10:53:59.353Z,91.52
2018-01-18T10:54:59.576Z,93.32
2018-01-18T10:55:59.552Z,94.56
2018-01-18T10:56:59.542Z,94.65
2018-01-18T10:57:59.497Z,95.75
2018-01-18T10:58:59.225Z,94.42
2018-01-18T10:59:59.199Z,94.6
2018-01-18T11:00:59.418Z,93.84
2018-01-18T11:01:59.394Z,94.7
2018-01-18T11:02:59.367Z,95.46
2018-01-18T11:03:59.096Z,95.75
2018-01-18T11:04:59.068Z,94.79
2018-01-18T11:05:59.216Z,94.6
2018-01-18T11:06:59.264Z,94.32
2018-01-18T11:07:58.995Z,95.36
2018-01-18T11:08:59.217Z,96.98
2018-01-18T11:09:58.941Z,95.84
2018-01-18T11:10:59.159Z,96.69
2018-01-18T11:11:59.133Z,94.03
2018-01-18T11:12:58.864Z,93.27
2018-01-18T11:13:59.084Z,94.32
2018-01-18T11:14:59.057Z,95.75
2018-01-18T11:15:58.783Z,95.55
2018-01-18T11:16:59.038Z,95.55
2018-01-18T11:17:58.980Z,97.36
2018-01-18T11:18:58.704Z,98.31
2018-01-18T11:19:58.923Z,98.21
2018-01-18T11:20:58.901Z,97.55
2018-01-18T11:21:58.873Z,97.27
2018-01-18T11:22:58.855Z,97.36
2018-01-18T11:23:58.822Z,95.75
2018-01-18T11:24:58.803Z,96.6
2018-01-18T11:25:58.771Z,96.41
2018-01-18T11:26:58.743Z,96.79
2018-01-18T11:27:58.718Z,95.41
2018-01-18T11:28:58.696Z,95.41
2018-01-18T11:29:58.670Z,97.02
2018-01-18T11:30:58.643Z,98.45
2018-01-18T11:31:58.621Z,98.35
2018-01-18T11:32:58.592Z,97.6
2018-01-18T11:33:58.614Z,97.41
2018-01-18T11:34:58.537Z,97.78
2018-01-18T11:35:58.514Z,98.92
2018-01-18T11:36:58.488Z,98.92
2018-01-18T11:37:58.219Z,97.78
2018-01-18T11:38:58.440Z,98.07
2018-01-18T11:39:58.210Z,94.84
2018-01-18T11:40:58.392Z,93.99
2018-01-18T11:41:58.365Z,96.17
2018-01-18T11:42:58.342Z,96.93
2018-01-18T11:43:58.077Z,96.93
2018-01-18T11:44:58.297Z,96.83
2018-01-18T11:45:58.027Z,97.12
2018-01-18T11:46:58.252Z,97.5
2018-01-18T11:47:58.222Z,96.64
2018-01-18T11:48:58.194Z,97.22
2018-01-18T11:49:58.173Z,99.4
2018-01-18T11:50:58.144Z,99.99
2018-01-18T11:51:58.126Z,99.99
2018-01-18T11:52:57.859Z,99.99
2018-01-18T11:53:58.396Z,99.99
2018-01-18T11:54:58.046Z,99.4
2018-01-18T11:55:57.790Z,99.97
2018-01-18T11:56:57.750Z,98.73
2018-01-18T11:57:57.971Z,97.5
2018-01-18T11:58:57.945Z,97.5
2018-01-18T11:59:57.919Z,97.5
2018-01-18T12:00:57.895Z,97.22
2018-01-18T12:01:57.870Z,96.08
2018-01-18T12:02:57.844Z,97.02
2018-01-18T12:03:57.820Z,96.17
2018-01-18T12:04:57.793Z,96.45
2018-01-18T12:05:58.239Z,95.31
2018-01-18T12:06:58.269Z,94.27
2018-01-18T12:07:57.629Z,95.03
2018-01-18T12:08:57.447Z,96.26
2018-01-18T12:09:57.672Z,95.41
2018-01-18T12:10:57.644Z,96.08
2018-01-18T12:11:57.615Z,96.74
2018-01-18T12:12:57.593Z,97.22
2018-01-18T12:13:57.568Z,97.64
2018-01-18T12:14:57.541Z,98.07
2018-01-18T12:15:57.515Z,97.36
2018-01-18T12:16:57.491Z,93.8
2018-01-18T12:17:57.459Z,93.18
2018-01-18T12:18:57.443Z,92.37
2018-01-18T12:19:57.414Z,93.51
2018-01-18T12:20:57.389Z,94.08
2018-01-18T12:21:57.357Z,94.08
2018-01-18T12:22:57.332Z,94.6
2018-01-18T12:23:57.310Z,94.42
2018-01-18T12:24:57.282Z,96.31
2018-01-18T12:25:57.009Z,96.59
2018-01-18T12:26:57.230Z,97.07
2018-01-18T12:27:57.200Z,97.17
2018-01-18T12:28:57.179Z,97.45
2018-01-18T12:29:56.906Z,97.26
2018-01-18T12:30:57.122Z,97.26
2018-01-18T12:31:56.850Z,97.55
2018-01-18T12:32:56.825Z,98.11
2018-01-18T12:33:56.798Z,98.3
2018-01-18T12:34:57.020Z,98.49
2018-01-18T12:35:56.993Z,98.92
2018-01-18T12:36:57.169Z,99.96
2018-01-18T12:37:56.945Z,99.99
2018-01-18T12:38:56.665Z,99.99
2018-01-18T12:39:56.881Z,99.99
2018-01-18T12:40:56.855Z,99.99
2018-01-18T12:41:56.831Z,99.99
2018-01-18T12:42:56.804Z,99.99
2018-01-18T12:43:56.774Z,99.99
2018-01-18T12:44:56.747Z,99.99
2018-01-18T12:45:56.724Z,99.99
2018-01-18T12:46:56.697Z,99.99
2018-01-18T12:47:56.670Z,99.99
2018-01-18T12:48:56.681Z,99.99
2018-01-18T12:49:56.366Z,99.99
2018-01-18T12:50:56.590Z,99.99
2018-01-18T12:51:56.313Z,99.99
2018-01-18T12:52:56.544Z,99.99